createdAt,value
2019-03-17T00:00:32.573Z,2.52
2019-03-17T00:01:15.674Z,2.60
2019-03-17T00:01:57.209Z,2.77
2019-03-17T00:02:29.715Z,2.20
2019-03-17T00:03:05.292Z,2.75
2019-03-17T00:03:41.102Z,2.60
2019-03-17T00:04:16.915Z,2.85
2019-03-17T00:04:52.820Z,2.63
2019-03-17T00:05:28.398Z,2.72
2019-03-17T00:06:04.292Z,2.50
2019-03-17T00:06:39.839Z,2.55
2019-03-17T00:07:15.641Z,2.60
2019-03-17T00:07:51.243Z,2.60
2019-03-17T00:08:26.799Z,2.70
2019-03-17T00:09:02.582Z,2.70
2019-03-17T00:09:39.410Z,2.67
2019-03-17T00:10:15.421Z,2.93
2019-03-17T00:10:52.610Z,2.40
2019-03-17T00:11:28.470Z,2.95
2019-03-17T00:12:04.343Z,2.90
2019-03-17T00:12:39.955Z,2.50
2019-03-17T00:13:17.774Z,2.45
2019-03-17T00:13:53.509Z,2.75
2019-03-17T00:14:30.121Z,2.60
2019-03-17T00:15:06.495Z,2.65
2019-03-17T00:15:43.266Z,2.52
2019-03-17T00:16:18.815Z,2.60
2019-03-17T00:16:54.453Z,2.58
2019-03-17T00:17:30.022Z,2.40
2019-03-17T00:18:05.580Z,2.70
2019-03-17T00:18:41.203Z,2.67
2019-03-17T00:19:16.755Z,2.50
2019-03-17T00:19:52.461Z,2.52
2019-03-17T00:20:28.049Z,2.37
2019-03-17T00:21:03.682Z,2.75
2019-03-17T00:21:39.335Z,2.63
2019-03-17T00:22:15.123Z,2.67
2019-03-17T00:22:50.692Z,2.72
2019-03-17T00:23:26.247Z,2.65
2019-03-17T00:24:01.795Z,2.23
2019-03-17T00:24:37.381Z,2.47
2019-03-17T00:25:13.233Z,3.00
2019-03-17T00:25:49.082Z,2.33
2019-03-17T00:26:24.613Z,2.72
2019-03-17T00:27:00.187Z,2.70
2019-03-17T00:27:35.735Z,2.60
2019-03-17T00:28:11.307Z,2.60
2019-03-17T00:28:47.108Z,2.63
2019-03-17T00:29:23.154Z,2.70
2019-03-17T00:29:58.715Z,2.23
2019-03-17T00:30:34.518Z,2.63
2019-03-17T00:31:10.062Z,2.83
2019-03-17T00:31:48.043Z,2.47
2019-03-17T00:32:23.873Z,2.80
2019-03-17T00:32:59.512Z,2.98
2019-03-17T00:33:36.549Z,2.60
2019-03-17T00:34:12.543Z,2.57
2019-03-17T00:34:50.758Z,2.80
2019-03-17T00:35:25.361Z,2.37
2019-03-17T00:36:00.944Z,2.40
2019-03-17T00:36:36.755Z,2.43
2019-03-17T00:37:12.899Z,3.00
2019-03-17T00:37:48.435Z,2.33
2019-03-17T00:38:23.987Z,2.50
2019-03-17T00:38:59.583Z,2.50
2019-03-17T00:39:35.111Z,2.42
2019-03-17T00:40:10.647Z,2.30
2019-03-17T00:40:46.295Z,2.20
2019-03-17T00:41:21.843Z,2.60
2019-03-17T00:41:57.375Z,2.80
2019-03-17T00:42:32.919Z,2.30
2019-03-17T00:43:08.560Z,2.77
2019-03-17T00:43:44.129Z,2.50
2019-03-17T00:44:21.126Z,2.40
2019-03-17T00:44:56.662Z,2.43
2019-03-17T00:45:32.467Z,2.50
2019-03-17T00:46:08.022Z,2.47
2019-03-17T00:46:43.619Z,2.40
2019-03-17T00:47:19.155Z,2.77
2019-03-17T00:47:55.032Z,2.60
2019-03-17T00:48:30.572Z,2.60
2019-03-17T00:49:06.142Z,2.80
2019-03-17T00:49:42.039Z,2.70
2019-03-17T00:50:17.591Z,2.80
2019-03-17T00:50:53.147Z,2.33
2019-03-17T00:51:28.688Z,2.52
2019-03-17T00:52:05.238Z,2.42
2019-03-17T00:52:40.789Z,2.47
2019-03-17T00:53:16.331Z,2.40
2019-03-17T00:53:52.313Z,2.55
2019-03-17T00:54:28.154Z,2.70
2019-03-17T00:55:03.727Z,2.33
2019-03-17T00:55:39.594Z,2.52
2019-03-17T00:56:15.135Z,2.60
2019-03-17T00:56:50.706Z,2.67
2019-03-17T00:57:26.277Z,2.63
2019-03-17T00:58:02.006Z,2.60
2019-03-17T00:58:37.546Z,2.27
2019-03-17T00:59:13.154Z,2.40
2019-03-17T00:59:48.695Z,2.62
2019-03-17T01:00:24.232Z,2.20
2019-03-17T01:00:59.848Z,2.20
2019-03-17T01:01:35.407Z,2.55
2019-03-17T01:02:10.964Z,2.50
2019-03-17T01:02:46.530Z,2.50
2019-03-17T01:03:22.399Z,2.57
2019-03-17T01:03:58.122Z,2.80
2019-03-17T01:04:33.979Z,2.30
2019-03-17T01:05:10.484Z,2.63
2019-03-17T01:05:46.105Z,2.50
2019-03-17T01:06:21.660Z,2.60
2019-03-17T01:06:57.205Z,2.80
2019-03-17T01:07:32.742Z,2.73
2019-03-17T01:08:08.532Z,2.17
2019-03-17T01:08:44.066Z,2.10
2019-03-17T01:09:19.603Z,2.90
2019-03-17T01:09:55.138Z,2.50
2019-03-17T01:10:30.688Z,2.60
2019-03-17T01:11:06.273Z,2.40
2019-03-17T01:11:41.849Z,2.50
2019-03-17T01:12:17.384Z,2.57
2019-03-17T01:12:52.926Z,2.60
2019-03-17T01:13:28.711Z,2.73
2019-03-17T01:14:04.266Z,2.80
2019-03-17T01:14:40.774Z,2.83
2019-03-17T01:15:16.315Z,2.57
2019-03-17T01:15:51.855Z,2.80
2019-03-17T01:16:28.487Z,2.33
2019-03-17T01:17:04.057Z,2.40
2019-03-17T01:17:40.006Z,2.65
2019-03-17T01:18:15.543Z,2.40
2019-03-17T01:18:51.091Z,2.87
2019-03-17T01:19:26.651Z,2.50
2019-03-17T01:20:02.218Z,2.70
2019-03-17T01:20:37.768Z,2.50
2019-03-17T01:21:13.319Z,2.77
2019-03-17T01:21:48.855Z,2.40
2019-03-17T01:22:24.674Z,2.70
2019-03-17T01:23:00.238Z,2.65
2019-03-17T01:23:35.866Z,2.60
2019-03-17T01:24:11.483Z,2.50
2019-03-17T01:24:47.318Z,2.80
2019-03-17T01:25:22.874Z,2.40
2019-03-17T01:25:58.662Z,2.70
2019-03-17T01:26:35.279Z,2.70
2019-03-17T01:27:11.203Z,2.45
2019-03-17T01:27:46.757Z,2.80
2019-03-17T01:28:22.305Z,2.63
2019-03-17T01:28:57.843Z,2.40
2019-03-17T01:29:33.372Z,2.77
2019-03-17T01:30:09.362Z,2.50
2019-03-17T01:30:45.266Z,2.50
2019-03-17T01:31:21.470Z,2.63
2019-03-17T01:31:57.043Z,2.40
2019-03-17T01:32:32.594Z,2.45
2019-03-17T01:33:08.145Z,2.53
2019-03-17T01:33:43.743Z,2.77
2019-03-17T01:34:19.273Z,2.70
2019-03-17T01:34:54.810Z,2.47
2019-03-17T01:35:32.505Z,2.50
2019-03-17T01:36:07.613Z,2.72
2019-03-17T01:36:43.164Z,2.95
2019-03-17T01:37:19.674Z,2.98
2019-03-17T01:37:55.242Z,2.80
2019-03-17T01:38:30.766Z,2.70
2019-03-17T01:39:07.542Z,2.90
2019-03-17T01:39:43.104Z,2.60
2019-03-17T01:40:18.779Z,2.70
2019-03-17T01:40:54.323Z,2.50
2019-03-17T01:41:30.234Z,2.77
2019-03-17T01:42:05.775Z,2.80
2019-03-17T01:42:41.311Z,2.65
2019-03-17T01:43:16.868Z,2.73
2019-03-17T01:43:52.407Z,2.80
2019-03-17T01:44:27.962Z,2.50
2019-03-17T01:45:03.532Z,2.70
2019-03-17T01:45:39.121Z,2.80
2019-03-17T01:46:14.654Z,2.70
2019-03-17T01:46:50.214Z,2.80
2019-03-17T01:47:27.779Z,2.40
2019-03-17T01:48:03.514Z,2.90
2019-03-17T01:48:39.053Z,2.70
2019-03-17T01:49:14.611Z,2.67
2019-03-17T01:49:50.467Z,2.40
2019-03-17T01:50:26.010Z,2.80
2019-03-17T01:51:01.560Z,2.70
2019-03-17T01:51:37.104Z,2.67
2019-03-17T01:52:12.636Z,2.70
2019-03-17T01:52:48.170Z,2.70
2019-03-17T01:53:24.771Z,2.60
2019-03-17T01:54:00.318Z,2.53
2019-03-17T01:54:36.776Z,2.67
2019-03-17T01:55:12.326Z,2.97
2019-03-17T01:55:47.870Z,3.05
2019-03-17T01:56:23.603Z,3.20
2019-03-17T01:56:59.146Z,2.67
2019-03-17T01:57:34.701Z,2.90
2019-03-17T01:58:10.247Z,3.08
2019-03-17T01:58:45.898Z,2.72
2019-03-17T01:59:21.469Z,3.27
2019-03-17T01:59:57.259Z,2.80
2019-03-17T02:00:33.139Z,2.87
2019-03-17T02:01:11.731Z,2.60
2019-03-17T02:01:46.242Z,2.97
2019-03-17T02:02:21.767Z,2.90
2019-03-17T02:02:57.352Z,3.10
2019-03-17T02:03:33.275Z,2.97
2019-03-17T02:04:08.830Z,2.83
2019-03-17T02:04:44.724Z,3.00
2019-03-17T02:05:22.303Z,2.65
2019-03-17T02:05:57.503Z,2.97
2019-03-17T02:06:33.368Z,3.05
2019-03-17T02:07:09.232Z,2.70
2019-03-17T02:07:45.075Z,2.70
2019-03-17T02:08:20.712Z,2.90
2019-03-17T02:08:56.267Z,2.70
2019-03-17T02:09:33.206Z,2.87
2019-03-17T02:10:08.832Z,2.63
2019-03-17T02:10:44.391Z,2.90
2019-03-17T02:11:19.946Z,2.33
2019-03-17T02:11:55.485Z,3.20
2019-03-17T02:12:31.027Z,3.47
2019-03-17T02:13:06.662Z,3.13
2019-03-17T02:13:42.496Z,3.00
2019-03-17T02:14:18.529Z,3.07
2019-03-17T02:14:54.055Z,2.90
2019-03-17T02:15:29.594Z,2.80
2019-03-17T02:16:05.125Z,2.98
2019-03-17T02:16:40.698Z,2.83
2019-03-17T02:17:16.263Z,2.50
2019-03-17T02:17:51.803Z,2.80
2019-03-17T02:18:27.371Z,2.83
2019-03-17T02:19:02.910Z,2.60
2019-03-17T02:19:38.519Z,2.80
2019-03-17T02:20:14.442Z,3.03
2019-03-17T02:20:49.998Z,2.70
2019-03-17T02:21:25.559Z,2.93
2019-03-17T02:22:01.465Z,3.10
2019-03-17T02:22:36.981Z,2.40
2019-03-17T02:23:12.526Z,3.00
2019-03-17T02:23:48.079Z,3.03
2019-03-17T02:24:23.650Z,2.90
2019-03-17T02:24:59.299Z,3.13
2019-03-17T02:25:34.858Z,3.27
2019-03-17T02:26:10.680Z,3.13
2019-03-17T02:26:46.522Z,2.63
2019-03-17T02:27:22.078Z,2.70
2019-03-17T02:27:58.100Z,2.60
2019-03-17T02:28:33.668Z,2.73
2019-03-17T02:29:09.275Z,3.35
2019-03-17T02:29:44.827Z,3.07
2019-03-17T02:30:20.380Z,3.10
2019-03-17T02:30:56.107Z,2.80
2019-03-17T02:31:31.644Z,2.90
2019-03-17T02:32:07.295Z,2.60
2019-03-17T02:32:42.851Z,3.03
2019-03-17T02:33:18.415Z,3.10
2019-03-17T02:33:53.974Z,2.97
2019-03-17T02:34:29.520Z,3.37
2019-03-17T02:35:05.582Z,2.93
2019-03-17T02:35:41.145Z,2.70
2019-03-17T02:36:16.696Z,3.27
2019-03-17T02:36:52.237Z,2.93
2019-03-17T02:37:27.831Z,2.90
2019-03-17T02:38:03.384Z,2.70
2019-03-17T02:38:38.939Z,2.87
2019-03-17T02:39:14.475Z,3.07
2019-03-17T02:39:50.025Z,3.00
2019-03-17T02:40:25.548Z,2.70
2019-03-17T02:41:01.151Z,3.00
2019-03-17T02:41:36.697Z,3.13
2019-03-17T02:42:12.232Z,3.10
2019-03-17T02:42:47.802Z,2.80
2019-03-17T02:43:23.344Z,2.97
2019-03-17T02:43:58.884Z,3.40
2019-03-17T02:44:34.438Z,3.03
2019-03-17T02:45:10.111Z,2.80
2019-03-17T02:45:45.725Z,3.30
2019-03-17T02:46:21.260Z,2.90
2019-03-17T02:46:56.982Z,2.73
2019-03-17T02:47:32.555Z,2.90
2019-03-17T02:48:08.076Z,2.80
2019-03-17T02:48:43.615Z,3.00
2019-03-17T02:49:19.166Z,3.40
2019-03-17T02:49:54.704Z,3.07
2019-03-17T02:50:30.618Z,2.93
2019-03-17T02:51:06.407Z,3.00
2019-03-17T02:51:41.949Z,3.20
2019-03-17T02:52:17.577Z,3.13
2019-03-17T02:52:53.116Z,2.90
2019-03-17T02:53:28.731Z,3.00
2019-03-17T02:54:04.519Z,3.10
2019-03-17T02:54:40.347Z,3.00
2019-03-17T02:55:15.891Z,3.10
2019-03-17T02:55:51.683Z,3.07
2019-03-17T02:56:27.228Z,2.90
2019-03-17T02:57:03.288Z,3.20
2019-03-17T02:57:39.914Z,2.90
2019-03-17T02:58:15.715Z,3.10
2019-03-17T02:58:51.256Z,2.90
2019-03-17T02:59:26.791Z,3.10
2019-03-17T03:00:02.654Z,2.97
2019-03-17T03:00:38.258Z,3.13
2019-03-17T03:01:13.803Z,3.10
2019-03-17T03:01:49.424Z,2.77
2019-03-17T03:02:25.211Z,3.30
2019-03-17T03:03:00.759Z,3.20
2019-03-17T03:03:36.650Z,2.93
2019-03-17T03:04:12.325Z,2.90
2019-03-17T03:04:47.958Z,3.20
2019-03-17T03:05:23.516Z,3.13
2019-03-17T03:05:59.054Z,3.20
2019-03-17T03:06:34.594Z,3.43
2019-03-17T03:07:10.138Z,3.57
2019-03-17T03:07:46.850Z,3.00
2019-03-17T03:08:22.403Z,3.60
2019-03-17T03:08:58.002Z,3.80
2019-03-17T03:09:33.871Z,3.43
2019-03-17T03:10:09.962Z,3.27
2019-03-17T03:10:45.483Z,3.23
2019-03-17T03:11:21.607Z,3.30
2019-03-17T03:11:57.140Z,3.30
2019-03-17T03:12:33.038Z,3.30
2019-03-17T03:13:08.697Z,3.50
2019-03-17T03:13:44.230Z,3.07
2019-03-17T03:14:19.781Z,2.97
2019-03-17T03:14:55.395Z,3.20
2019-03-17T03:15:30.943Z,3.73
2019-03-17T03:16:06.524Z,3.50
2019-03-17T03:16:42.156Z,3.40
2019-03-17T03:17:18.140Z,3.57
2019-03-17T03:17:53.684Z,3.30
2019-03-17T03:18:29.236Z,3.00
2019-03-17T03:19:04.783Z,3.33
2019-03-17T03:19:40.669Z,3.70
2019-03-17T03:20:16.197Z,3.13
2019-03-17T03:20:51.772Z,3.27
2019-03-17T03:21:27.374Z,3.13
2019-03-17T03:22:02.995Z,3.20
2019-03-17T03:22:38.531Z,3.30
2019-03-17T03:23:14.077Z,3.60
2019-03-17T03:23:49.627Z,2.93
2019-03-17T03:24:25.178Z,3.10
2019-03-17T03:25:00.895Z,3.00
2019-03-17T03:25:36.531Z,3.42
2019-03-17T03:26:12.387Z,3.40
2019-03-17T03:26:47.935Z,3.63
2019-03-17T03:27:24.556Z,3.10
2019-03-17T03:28:00.108Z,3.10
2019-03-17T03:28:35.668Z,3.20
2019-03-17T03:29:11.541Z,3.30
2019-03-17T03:29:47.071Z,2.90
2019-03-17T03:30:22.607Z,2.87
2019-03-17T03:30:58.185Z,3.30
2019-03-17T03:31:34.191Z,3.30
2019-03-17T03:32:09.747Z,3.80
2019-03-17T03:32:45.701Z,3.60
2019-03-17T03:33:21.298Z,3.33
2019-03-17T03:33:56.907Z,3.00
2019-03-17T03:34:32.473Z,3.40
2019-03-17T03:35:08.159Z,3.23
2019-03-17T03:35:43.826Z,3.23
2019-03-17T03:36:19.611Z,2.90
2019-03-17T03:36:55.152Z,2.93
2019-03-17T03:37:30.679Z,3.13
2019-03-17T03:38:06.303Z,3.20
2019-03-17T03:38:42.893Z,3.03
2019-03-17T03:39:18.801Z,3.10
2019-03-17T03:39:54.411Z,2.90
2019-03-17T03:40:29.965Z,3.30
2019-03-17T03:41:06.187Z,2.80
2019-03-17T03:41:41.724Z,3.40
2019-03-17T03:42:17.275Z,3.20
2019-03-17T03:42:53.174Z,3.00
2019-03-17T03:43:28.783Z,3.40
2019-03-17T03:44:04.379Z,3.60
2019-03-17T03:44:40.003Z,3.30
2019-03-17T03:45:15.645Z,3.47
2019-03-17T03:45:51.224Z,3.67
2019-03-17T03:46:26.799Z,4.10
2019-03-17T03:47:03.330Z,3.60
2019-03-17T03:47:39.170Z,3.67
2019-03-17T03:48:14.784Z,3.90
2019-03-17T03:48:50.350Z,3.83
2019-03-17T03:49:25.891Z,3.90
2019-03-17T03:50:01.423Z,4.07
2019-03-17T03:50:36.974Z,3.80
2019-03-17T03:51:12.517Z,3.77
2019-03-17T03:51:48.055Z,3.90
2019-03-17T03:52:23.595Z,3.73
2019-03-17T03:52:59.173Z,3.63
2019-03-17T03:53:34.695Z,3.73
2019-03-17T03:54:10.247Z,4.00
2019-03-17T03:54:46.127Z,3.80
2019-03-17T03:55:21.876Z,3.87
2019-03-17T03:55:57.411Z,3.67
2019-03-17T03:56:33.967Z,3.80
2019-03-17T03:57:10.332Z,3.80
2019-03-17T03:57:46.139Z,4.10
2019-03-17T03:58:21.695Z,4.30
2019-03-17T03:58:57.236Z,4.20
2019-03-17T03:59:32.768Z,4.10
2019-03-17T04:00:09.106Z,4.20
2019-03-17T04:00:44.931Z,3.97
2019-03-17T04:01:20.474Z,4.40
2019-03-17T04:01:56.028Z,4.00
2019-03-17T04:02:31.828Z,4.10
2019-03-17T04:03:07.377Z,4.07
2019-03-17T04:03:47.091Z,4.20
2019-03-17T04:04:22.630Z,3.90
2019-03-17T04:04:58.183Z,4.47
2019-03-17T04:05:38.821Z,4.20
2019-03-17T04:06:25.681Z,4.67
2019-03-17T04:06:51.707Z,4.37
2019-03-17T04:07:27.248Z,3.70
2019-03-17T04:08:02.837Z,4.20
2019-03-17T04:08:38.754Z,4.23
2019-03-17T04:09:14.313Z,4.43
2019-03-17T04:09:49.893Z,4.23
2019-03-17T04:10:25.409Z,4.13
2019-03-17T04:11:00.950Z,4.33
2019-03-17T04:11:36.483Z,3.90
2019-03-17T04:12:12.109Z,4.30
2019-03-17T04:12:47.779Z,4.00
2019-03-17T04:13:23.603Z,4.13
2019-03-17T04:13:59.152Z,4.30
2019-03-17T04:14:34.672Z,4.10
2019-03-17T04:15:10.325Z,4.20
2019-03-17T04:15:45.923Z,4.73
2019-03-17T04:16:22.739Z,4.50
2019-03-17T04:16:58.523Z,4.87
2019-03-17T04:17:34.055Z,3.90
2019-03-17T04:18:09.858Z,4.40
2019-03-17T04:18:45.460Z,4.50
2019-03-17T04:19:22.077Z,4.83
2019-03-17T04:19:57.697Z,4.53
2019-03-17T04:20:33.245Z,4.23
2019-03-17T04:21:08.792Z,4.33
2019-03-17T04:21:44.324Z,4.47
2019-03-17T04:22:19.935Z,4.10
2019-03-17T04:22:55.458Z,4.10
2019-03-17T04:23:31.083Z,4.60
2019-03-17T04:24:06.697Z,4.30
2019-03-17T04:24:42.283Z,4.03
2019-03-17T04:25:18.066Z,4.90
2019-03-17T04:25:53.612Z,4.60
2019-03-17T04:26:29.382Z,4.57
2019-03-17T04:27:04.907Z,4.70
2019-03-17T04:27:40.435Z,4.30
2019-03-17T04:28:15.988Z,4.30
2019-03-17T04:28:51.519Z,4.40
2019-03-17T04:29:27.062Z,4.60
2019-03-17T04:30:02.588Z,4.23
2019-03-17T04:30:38.197Z,4.60
2019-03-17T04:31:14.774Z,4.30
2019-03-17T04:31:50.542Z,4.27
2019-03-17T04:32:26.063Z,4.13
2019-03-17T04:33:01.679Z,3.53
2019-03-17T04:33:37.210Z,4.53
2019-03-17T04:34:12.759Z,4.30
2019-03-17T04:34:48.323Z,4.07
2019-03-17T04:35:24.103Z,4.03
2019-03-17T04:35:59.654Z,3.73
2019-03-17T04:36:40.536Z,3.70
2019-03-17T04:37:12.407Z,4.00
2019-03-17T04:37:47.961Z,4.30
2019-03-17T04:38:23.491Z,4.07
2019-03-17T04:38:59.044Z,4.20
2019-03-17T04:39:34.663Z,3.63
2019-03-17T04:40:10.214Z,4.10
2019-03-17T04:40:45.851Z,4.27
2019-03-17T04:41:21.397Z,3.70
2019-03-17T04:41:56.948Z,3.80
2019-03-17T04:42:32.567Z,3.50
2019-03-17T04:43:08.384Z,3.67
2019-03-17T04:43:44.244Z,3.50
2019-03-17T04:44:21.125Z,3.60
2019-03-17T04:44:57.138Z,4.10
2019-03-17T04:45:32.979Z,3.70
2019-03-17T04:46:08.875Z,3.97
2019-03-17T04:46:44.444Z,4.20
2019-03-17T04:47:19.984Z,3.97
2019-03-17T04:47:55.815Z,3.57
2019-03-17T04:48:31.484Z,4.00
2019-03-17T04:49:07.039Z,4.10
2019-03-17T04:49:42.653Z,4.23
2019-03-17T04:50:18.457Z,3.60
2019-03-17T04:50:55.147Z,3.93
2019-03-17T04:51:30.963Z,3.80
2019-03-17T04:52:06.783Z,4.03
2019-03-17T04:52:42.342Z,4.27
2019-03-17T04:53:17.878Z,4.10
2019-03-17T04:53:53.412Z,4.50
2019-03-17T04:54:28.991Z,4.03
2019-03-17T04:55:04.585Z,4.20
2019-03-17T04:55:40.121Z,4.30
2019-03-17T04:56:15.670Z,4.50
2019-03-17T04:56:51.276Z,4.10
2019-03-17T04:57:26.809Z,3.90
2019-03-17T04:58:02.342Z,4.70
2019-03-17T04:58:37.902Z,4.40
2019-03-17T04:59:13.542Z,4.27
2019-03-17T04:59:49.121Z,4.63
2019-03-17T05:00:24.682Z,4.43
2019-03-17T05:01:00.231Z,5.03
2019-03-17T05:01:35.779Z,4.10
2019-03-17T05:02:13.512Z,5.07
2019-03-17T05:02:48.538Z,4.73
2019-03-17T05:03:24.075Z,4.57
2019-03-17T05:03:59.604Z,4.27
2019-03-17T05:04:35.183Z,4.40
2019-03-17T05:05:10.983Z,4.40
2019-03-17T05:05:47.504Z,4.60
2019-03-17T05:06:23.092Z,4.67
2019-03-17T05:06:58.631Z,4.67
2019-03-17T05:07:34.163Z,4.70
2019-03-17T05:08:09.696Z,5.00
2019-03-17T05:08:45.272Z,4.70
2019-03-17T05:09:20.831Z,4.80
2019-03-17T05:09:56.354Z,4.60
2019-03-17T05:10:31.900Z,4.73
2019-03-17T05:11:07.443Z,4.50
2019-03-17T05:11:42.983Z,4.47
2019-03-17T05:12:18.541Z,4.40
2019-03-17T05:12:54.106Z,4.70
2019-03-17T05:13:29.670Z,5.13
2019-03-17T05:14:05.244Z,5.07
2019-03-17T05:14:40.799Z,5.43
2019-03-17T05:15:16.700Z,5.47
2019-03-17T05:15:52.247Z,5.23
2019-03-17T05:16:27.779Z,5.10
2019-03-17T05:17:03.331Z,5.83
2019-03-17T05:17:38.882Z,6.00
2019-03-17T05:18:14.427Z,6.83
2019-03-17T05:18:49.967Z,6.73
2019-03-17T05:19:25.509Z,7.07
2019-03-17T05:20:01.384Z,7.40
2019-03-17T05:20:36.923Z,6.97
2019-03-17T05:21:12.470Z,7.17
2019-03-17T05:21:48.021Z,7.40
2019-03-17T05:22:23.583Z,7.47
2019-03-17T05:22:59.131Z,7.40
2019-03-17T05:23:34.913Z,7.13
2019-03-17T05:24:10.532Z,6.97
2019-03-17T05:24:46.158Z,8.40
2019-03-17T05:25:21.727Z,7.93
2019-03-17T05:25:57.263Z,7.93
2019-03-17T05:26:33.169Z,7.87
2019-03-17T05:27:08.798Z,7.50
2019-03-17T05:27:44.343Z,8.57
2019-03-17T05:28:19.893Z,8.33
2019-03-17T05:28:55.519Z,7.40
2019-03-17T05:29:31.060Z,8.23
2019-03-17T05:30:06.858Z,8.07
2019-03-17T05:30:42.427Z,8.33
2019-03-17T05:31:17.963Z,8.57
2019-03-17T05:31:53.502Z,10.43
2019-03-17T05:32:29.046Z,7.20
2019-03-17T05:33:04.938Z,10.20
2019-03-17T05:33:40.782Z,8.30
2019-03-17T05:34:16.346Z,8.30
2019-03-17T05:34:51.979Z,9.23
2019-03-17T05:35:27.529Z,10.60
2019-03-17T05:36:03.071Z,8.73
2019-03-17T05:36:38.602Z,7.57
2019-03-17T05:37:14.139Z,8.77
2019-03-17T05:37:50.022Z,8.30
2019-03-17T05:38:25.584Z,9.57
2019-03-17T05:39:01.299Z,9.40
2019-03-17T05:39:37.581Z,8.77
2019-03-17T05:40:14.079Z,8.33
2019-03-17T05:40:49.670Z,9.30
2019-03-17T05:41:25.208Z,9.07
2019-03-17T05:42:00.751Z,9.03
2019-03-17T05:42:36.311Z,8.70
2019-03-17T05:43:11.891Z,9.70
2019-03-17T05:43:47.442Z,9.87
2019-03-17T05:44:22.976Z,9.13
2019-03-17T05:44:58.512Z,9.10
2019-03-17T05:45:34.411Z,9.80
2019-03-17T05:46:10.691Z,8.87
2019-03-17T05:46:46.384Z,8.93
2019-03-17T05:47:22.046Z,9.10
2019-03-17T05:47:57.595Z,7.90
2019-03-17T05:48:33.150Z,9.30
2019-03-17T05:49:09.079Z,10.80
2019-03-17T05:49:44.899Z,9.97
2019-03-17T05:50:20.728Z,10.30
2019-03-17T05:50:56.390Z,9.17
2019-03-17T05:51:32.213Z,9.67
2019-03-17T05:52:07.757Z,10.27
2019-03-17T05:52:43.404Z,10.23
2019-03-17T05:53:19.301Z,9.10
2019-03-17T05:53:54.856Z,10.17
2019-03-17T05:54:30.403Z,10.53
2019-03-17T05:55:06.054Z,10.47
2019-03-17T05:55:41.607Z,11.23
2019-03-17T05:56:17.151Z,9.57
2019-03-17T05:56:52.704Z,8.80
2019-03-17T05:57:28.288Z,9.40
2019-03-17T05:58:03.823Z,10.57
2019-03-17T05:58:39.368Z,9.80
2019-03-17T05:59:14.990Z,10.07
2019-03-17T05:59:50.570Z,10.33
2019-03-17T06:00:26.127Z,10.67
2019-03-17T06:01:01.691Z,10.73
2019-03-17T06:01:37.236Z,10.13
2019-03-17T06:02:12.861Z,10.47
2019-03-17T06:02:48.772Z,8.53
2019-03-17T06:03:24.310Z,8.57
2019-03-17T06:03:59.870Z,10.03
2019-03-17T06:04:35.402Z,9.67
2019-03-17T06:05:10.962Z,8.77
2019-03-17T06:05:46.486Z,9.73
2019-03-17T06:06:22.036Z,11.10
2019-03-17T06:06:57.590Z,11.50
2019-03-17T06:07:33.130Z,10.33
2019-03-17T06:08:08.674Z,9.97
2019-03-17T06:08:44.516Z,10.40
2019-03-17T06:09:20.093Z,11.53
2019-03-17T06:09:55.632Z,9.40
2019-03-17T06:10:31.175Z,9.60
2019-03-17T06:11:06.706Z,9.37
2019-03-17T06:11:42.259Z,10.77
2019-03-17T06:12:17.795Z,11.67
2019-03-17T06:12:53.341Z,9.90
2019-03-17T06:13:28.878Z,10.67
2019-03-17T06:14:04.431Z,9.73
2019-03-17T06:14:39.967Z,11.47
2019-03-17T06:15:15.526Z,9.97
2019-03-17T06:15:51.067Z,9.13
2019-03-17T06:16:26.621Z,9.33
2019-03-17T06:17:02.179Z,9.73
2019-03-17T06:17:37.753Z,10.00
2019-03-17T06:18:13.300Z,9.73
2019-03-17T06:18:48.830Z,9.93
2019-03-17T06:19:24.375Z,10.07
2019-03-17T06:20:00.365Z,10.40
2019-03-17T06:20:35.995Z,9.93
2019-03-17T06:21:11.539Z,9.87
2019-03-17T06:21:47.080Z,10.90
2019-03-17T06:22:22.635Z,9.30
2019-03-17T06:22:58.267Z,10.33
2019-03-17T06:23:33.899Z,9.60
2019-03-17T06:24:09.435Z,9.90
2019-03-17T06:24:45.019Z,10.77
2019-03-17T06:25:20.560Z,9.83
2019-03-17T06:25:56.095Z,9.43
2019-03-17T06:26:31.636Z,9.80
2019-03-17T06:27:07.206Z,10.60
2019-03-17T06:27:42.750Z,10.53
2019-03-17T06:28:21.451Z,10.10
2019-03-17T06:28:55.910Z,9.93
2019-03-17T06:29:31.713Z,10.37
2019-03-17T06:30:08.540Z,9.17
2019-03-17T06:30:44.074Z,10.00
2019-03-17T06:31:19.611Z,10.40
2019-03-17T06:31:55.134Z,8.90
2019-03-17T06:32:30.675Z,9.50
2019-03-17T06:33:06.215Z,10.50
2019-03-17T06:33:41.840Z,9.90
2019-03-17T06:34:17.411Z,12.37
2019-03-17T06:34:53.395Z,10.23
2019-03-17T06:35:28.950Z,9.50
2019-03-17T06:36:04.494Z,11.07
2019-03-17T06:36:40.026Z,10.13
2019-03-17T06:37:15.672Z,9.60
2019-03-17T06:37:51.271Z,11.03
2019-03-17T06:38:26.833Z,10.73
2019-03-17T06:39:02.387Z,10.50
2019-03-17T06:39:37.989Z,9.77
2019-03-17T06:40:13.669Z,10.33
2019-03-17T06:40:49.276Z,10.40
2019-03-17T06:41:24.823Z,9.80
2019-03-17T06:42:00.368Z,9.90
2019-03-17T06:42:35.917Z,10.57
2019-03-17T06:43:12.528Z,11.13
2019-03-17T06:43:48.070Z,10.97
2019-03-17T06:44:23.626Z,10.73
2019-03-17T06:44:59.182Z,10.43
2019-03-17T06:45:34.758Z,9.80
2019-03-17T06:46:10.338Z,10.60
2019-03-17T06:46:45.896Z,10.60
2019-03-17T06:47:21.481Z,9.83
2019-03-17T06:47:56.999Z,10.80
2019-03-17T06:48:32.628Z,9.93
2019-03-17T06:49:08.179Z,9.60
2019-03-17T06:49:43.981Z,10.47
2019-03-17T06:50:19.528Z,9.83
2019-03-17T06:50:55.289Z,9.90
2019-03-17T06:51:31.115Z,11.23
2019-03-17T06:52:06.663Z,10.07
2019-03-17T06:52:42.217Z,10.00
2019-03-17T06:53:17.829Z,10.10
2019-03-17T06:53:56.618Z,9.60
2019-03-17T06:54:30.624Z,10.23
2019-03-17T06:55:07.122Z,10.33
2019-03-17T06:55:42.690Z,9.93
2019-03-17T06:56:18.227Z,10.00
2019-03-17T06:56:54.505Z,9.70
2019-03-17T06:57:30.152Z,10.50
2019-03-17T06:58:05.768Z,9.43
2019-03-17T06:58:41.334Z,10.13
2019-03-17T06:59:17.779Z,10.73
2019-03-17T06:59:53.410Z,9.10
2019-03-17T07:00:28.931Z,8.57
2019-03-17T07:01:04.502Z,9.80
2019-03-17T07:01:40.056Z,10.63
2019-03-17T07:02:15.587Z,9.60
2019-03-17T07:02:51.185Z,8.40
2019-03-17T07:03:26.831Z,10.43
2019-03-17T07:04:02.378Z,9.17
2019-03-17T07:04:38.171Z,9.63
2019-03-17T07:05:13.989Z,10.13
2019-03-17T07:05:49.535Z,9.50
2019-03-17T07:06:25.098Z,9.93
2019-03-17T07:07:00.649Z,9.63
2019-03-17T07:07:44.057Z,10.00
2019-03-17T07:08:13.582Z,11.03
2019-03-17T07:08:49.451Z,9.70
2019-03-17T07:09:25.006Z,10.20
2019-03-17T07:10:00.654Z,9.63
2019-03-17T07:10:36.206Z,9.80
2019-03-17T07:11:11.731Z,10.70
2019-03-17T07:11:47.293Z,10.00
2019-03-17T07:12:22.828Z,10.70
2019-03-17T07:12:58.395Z,10.03
2019-03-17T07:13:34.057Z,10.83
2019-03-17T07:14:09.611Z,12.70
2019-03-17T07:14:45.182Z,12.27
2019-03-17T07:15:20.746Z,10.10
2019-03-17T07:15:56.286Z,11.37
2019-03-17T07:16:32.531Z,10.93
2019-03-17T07:17:08.114Z,10.77
2019-03-17T07:17:44.009Z,11.70
2019-03-17T07:18:21.698Z,11.10
2019-03-17T07:18:57.236Z,10.67
2019-03-17T07:19:32.771Z,11.60
2019-03-17T07:20:08.846Z,10.00
2019-03-17T07:20:44.654Z,12.03
2019-03-17T07:21:20.514Z,10.67
2019-03-17T07:21:56.461Z,11.27
2019-03-17T07:22:32.058Z,11.67
2019-03-17T07:23:07.605Z,10.07
2019-03-17T07:23:43.167Z,11.73
2019-03-17T07:24:18.720Z,10.67
2019-03-17T07:24:54.514Z,10.70
2019-03-17T07:25:30.082Z,10.67
2019-03-17T07:26:06.299Z,10.17
2019-03-17T07:26:41.818Z,10.73
2019-03-17T07:27:17.399Z,9.93
2019-03-17T07:27:53.081Z,10.53
2019-03-17T07:28:28.634Z,10.03
2019-03-17T07:29:04.157Z,10.00
2019-03-17T07:29:39.958Z,10.00
2019-03-17T07:30:15.529Z,9.30
2019-03-17T07:30:51.069Z,10.13
2019-03-17T07:31:26.927Z,9.67
2019-03-17T07:32:02.715Z,7.30
2019-03-17T07:32:38.245Z,7.53
2019-03-17T07:33:13.792Z,7.77
2019-03-17T07:33:49.343Z,6.27
2019-03-17T07:34:24.874Z,7.40
2019-03-17T07:35:00.425Z,6.93
2019-03-17T07:35:36.049Z,7.50
2019-03-17T07:36:11.678Z,7.83
2019-03-17T07:36:47.216Z,8.07
2019-03-17T07:37:22.743Z,8.37
2019-03-17T07:37:58.350Z,8.33
2019-03-17T07:38:33.915Z,7.37
2019-03-17T07:39:12.025Z,7.77
2019-03-17T07:39:47.088Z,7.77
2019-03-17T07:40:22.660Z,7.20
2019-03-17T07:40:59.169Z,6.10
2019-03-17T07:41:35.282Z,5.70
2019-03-17T07:42:10.815Z,5.20
2019-03-17T07:42:46.383Z,4.20
2019-03-17T07:43:22.372Z,4.03
2019-03-17T07:43:57.959Z,4.40
2019-03-17T07:44:33.664Z,3.90
2019-03-17T07:45:09.574Z,3.97
2019-03-17T07:45:45.154Z,3.43
2019-03-17T07:46:20.759Z,4.07
2019-03-17T07:46:56.282Z,4.50
2019-03-17T07:47:31.842Z,3.87
2019-03-17T07:48:07.392Z,3.90
2019-03-17T07:48:42.966Z,3.50
2019-03-17T07:49:18.490Z,4.23
2019-03-17T07:49:54.354Z,3.70
2019-03-17T07:50:30.150Z,4.17
2019-03-17T07:51:05.692Z,3.97
2019-03-17T07:51:41.219Z,3.73
2019-03-17T07:52:16.742Z,3.70
2019-03-17T07:52:52.275Z,3.20
2019-03-17T07:53:28.062Z,4.10